Aérodrome :
LOGIN :

S'inscrire | Disclaimer

   EN    FR    IT 

 










Légende :    VFR   VFR Marginal   IFR   IFR Intensif   IFR Très Intensif
Visi : 
Plafond : 
>= 8 km
>= 3000ft
5 à 8 km
1000 à 3000 ft
1500m à 5 km
500 à 1000 ft
800 à 1500m
200 à 500 ft
< 800m
< 200 ft
Symboles :   Orages  Brouillard  Fortes neiges  Fortes précipitations  Vent > 20 kt
SIGMETs :   Divers  Orages  Givrage  Turbulence  Onde Orograph.  Cendres Volcan.







- Altitude de l'aérodrome : 56 ft
- Code IATA : BZR
- Voir les cartes d'approche


LFMU - Beziers / Vias

DERNIER METAR :
  • 230000Z AUTO 20003KT 9999 BKN048 OVC054 14/07 Q1026

METARs EXPIRÉS :
  • 222330Z AUTO 00000KT 9999 BKN045 OVC054 13/07 Q1026
  • 222300Z AUTO 28002KT CAVOK 13/07 Q1026
  • 222230Z AUTO 25003KT CAVOK 13/07 Q1026
  • 222200Z AUTO 28004KT 210V300 CAVOK 13/07 Q1026
  • 222130Z AUTO 31005KT CAVOK 14/07 Q1026

TAF TAF LFMU
Valide du 22 à 15h jusqu'au 23 à 15h UTC


221400Z 2215/2315 30018KT CAVOK
TEMPO 2215/2219 30023G33KT
TEMPO 2310/2315 32015G25KT
ATIS : +33 4 67 90 88 88
Pas de NOTAMs connus pour ce terrain.
2 SIGMETs publiés pour la FIR Marseille (LFMM) :
 
Turbulence forte
LFMM SIGMET 18 VALID 222300/230300 LFPW
LFMM MARSEILLE FIR/UIR SEV TURB FCST WI N4200 E00945 - N4115 E00945 - N4115 E00800 - N4015 E00800 - N4345 E00430 - N4400 E00645 SFC/FL060 MOV S 15KT NC=
Turbulence forte
LFMM SIGMET 17 VALID 222300/230300 LFPW
LFMM MARSEILLE FIR/UIR SEV TURB FCST WI N4630 E00515 - N4630 E00700 - N4400 E00700 - N4345 E00815 - N4315 E00700 FL220/320 MOV E 15KT NC=



MET'MAP, la Météo Aéronautique d'un coup d'oeil ! - Copyright ORBIFLY Décembre 2007 - Disclaimer

ORBIFLY MET'MAP TEAM :

Programmation & Développement : Alexandra Zaïnal
Conception & Développement : Baudouin d'Aumeries
Co-Programmation & Développement : Marc-Olivier Méhu
Soutien technique & logistique : Manuel Goepfert

Contact : metmap@orbifly.com




SOURCES & CREDITS :

   NOAA